Terminal Aerodrome Forecast
Issued by NWS Sioux Falls, SD

Home | Current Version | Previous Version | Graphics & Text | Print | Product List | Glossary On
Versions: 1 2 3 4 5 6 7 8 9 10 11 12 13 14 15 16 17 18 19 20 21 22 23 24
000
FTUS43 KFSD 211126
TAFSUX
TAF
KSUX 211126Z 2112/2212 04007KT P6SM SCT030 OVC150
     FM211500 03011KT P6SM OVC025
     FM211800 03016KT 6SM -DZ OVC015
     FM220000 03016G24KT 3SM -RASN OVC010
     FM220600 02019G28KT 1/2SM SNRA BLSN OVC008=

USA.gov is the U.S. government's official web portal to all federal, state and local government web resources and services.